sensor_id;sensor_type;location;lat;lon;timestamp;P1;durP1;ratioP1;P2;durP2;ratioP2
22421;SDS011;11378;51.642;7.668;2022-11-22T00:01:03;91.90;;;77.13;;
22421;SDS011;11378;51.642;7.668;2022-11-22T00:03:30;91.93;;;74.05;;
22421;SDS011;11378;51.642;7.668;2022-11-22T00:05:56;87.82;;;73.82;;
22421;SDS011;11378;51.642;7.668;2022-11-22T00:08:23;88.07;;;74.53;;
22421;SDS011;11378;51.642;7.668;2022-11-22T00:10:49;89.10;;;74.78;;
22421;SDS011;11378;51.642;7.668;2022-11-22T00:13:16;88.47;;;73.50;;
22421;SDS011;11378;51.642;7.668;2022-11-22T00:15:43;86.00;;;73.38;;
22421;SDS011;11378;51.642;7.668;2022-11-22T00:18:10;87.03;;;72.07;;
22421;SDS011;11378;51.642;7.668;2022-11-22T00:20:36;89.43;;;73.32;;
22421;SDS011;11378;51.642;7.668;2022-11-22T00:23:03;87.68;;;73.47;;
22421;SDS011;11378;51.642;7.668;2022-11-22T00:25:29;81.10;;;70.47;;
22421;SDS011;11378;51.642;7.668;2022-11-22T00:27:56;83.85;;;70.60;;
22421;SDS011;11378;51.642;7.668;2022-11-22T00:30:22;82.82;;;70.82;;
22421;SDS011;11378;51.642;7.668;2022-11-22T00:32:48;85.57;;;71.47;;
22421;SDS011;11378;51.642;7.668;2022-11-22T00:35:15;78.68;;;69.03;;
22421;SDS011;11378;51.642;7.668;2022-11-22T00:37:41;81.80;;;68.38;;
22421;SDS011;11378;51.642;7.668;2022-11-22T00:40:08;80.85;;;68.47;;
22421;SDS011;11378;51.642;7.668;2022-11-22T00:42:34;80.75;;;68.13;;
22421;SDS011;11378;51.642;7.668;2022-11-22T00:45:01;82.07;;;67.55;;
22421;SDS011;11378;51.642;7.668;2022-11-22T00:47:27;80.13;;;66.07;;
22421;SDS011;11378;51.642;7.668;2022-11-22T00:49:53;78.97;;;65.68;;
22421;SDS011;11378;51.642;7.668;2022-11-22T00:52:20;74.90;;;64.28;;
22421;SDS011;11378;51.642;7.668;2022-11-22T00:54:46;78.20;;;66.22;;
22421;SDS011;11378;51.642;7.668;2022-11-22T00:57:12;77.78;;;66.25;;
22421;SDS011;11378;51.642;7.668;2022-11-22T00:59:39;76.50;;;64.70;;
22421;SDS011;11378;51.642;7.668;2022-11-22T01:02:05;77.53;;;65.93;;
22421;SDS011;11378;51.642;7.668;2022-11-22T01:04:32;72.97;;;62.90;;
22421;SDS011;11378;51.642;7.668;2022-11-22T01:06:58;72.05;;;62.42;;
22421;SDS011;11378;51.642;7.668;2022-11-22T01:09:25;74.85;;;62.55;;
22421;SDS011;11378;51.642;7.668;2022-11-22T01:11:51;72.75;;;61.58;;
22421;SDS011;11378;51.642;7.668;2022-11-22T01:14:18;73.78;;;62.22;;
22421;SDS011;11378;51.642;7.668;2022-11-22T01:16:44;73.28;;;62.60;;
22421;SDS011;11378;51.642;7.668;2022-11-22T01:19:11;71.57;;;61.65;;
22421;SDS011;11378;51.642;7.668;2022-11-22T01:21:37;75.40;;;61.42;;
22421;SDS011;11378;51.642;7.668;2022-11-22T01:24:04;72.50;;;62.13;;
22421;SDS011;11378;51.642;7.668;2022-11-22T01:26:31;73.63;;;61.50;;
22421;SDS011;11378;51.642;7.668;2022-11-22T01:28:58;69.63;;;59.95;;
22421;SDS011;11378;51.642;7.668;2022-11-22T01:31:24;73.88;;;61.50;;
22421;SDS011;11378;51.642;7.668;2022-11-22T01:33:50;70.70;;;59.53;;
22421;SDS011;11378;51.642;7.668;2022-11-22T01:36:17;70.00;;;59.65;;
22421;SDS011;11378;51.642;7.668;2022-11-22T01:38:43;69.40;;;58.92;;
22421;SDS011;11378;51.642;7.668;2022-11-22T01:41:09;69.25;;;58.58;;
22421;SDS011;11378;51.642;7.668;2022-11-22T01:43:36;65.68;;;56.92;;
22421;SDS011;11378;51.642;7.668;2022-11-22T01:46:03;69.15;;;57.92;;
22421;SDS011;11378;51.642;7.668;2022-11-22T01:51:00;69.40;;;58.78;;
22421;SDS011;11378;51.642;7.668;2022-11-22T01:53:28;69.78;;;57.38;;
22421;SDS011;11378;51.642;7.668;2022-11-22T01:55:55;64.85;;;55.53;;
22421;SDS011;11378;51.642;7.668;2022-11-22T01:58:22;64.90;;;56.97;;
22421;SDS011;11378;51.642;7.668;2022-11-22T02:00:50;67.22;;;57.45;;
22421;SDS011;11378;51.642;7.668;2022-11-22T02:03:17;69.72;;;58.08;;
22421;SDS011;11378;51.642;7.668;2022-11-22T02:05:44;65.82;;;55.50;;
22421;SDS011;11378;51.642;7.668;2022-11-22T02:08:17;66.63;;;55.92;;
22421;SDS011;11378;51.642;7.668;2022-11-22T02:10:45;64.10;;;55.13;;
22421;SDS011;11378;51.642;7.668;2022-11-22T02:13:13;66.82;;;55.53;;
22421;SDS011;11378;51.642;7.668;2022-11-22T02:15:40;64.72;;;53.80;;
22421;SDS011;11378;51.642;7.668;2022-11-22T02:18:06;64.18;;;55.63;;
22421;SDS011;11378;51.642;7.668;2022-11-22T02:20:33;63.90;;;53.72;;
22421;SDS011;11378;51.642;7.668;2022-11-22T02:23:04;61.95;;;53.30;;
22421;SDS011;11378;51.642;7.668;2022-11-22T02:28:09;60.60;;;52.63;;
22421;SDS011;11378;51.642;7.668;2022-11-22T02:30:36;60.42;;;52.10;;
22421;SDS011;11378;51.642;7.668;2022-11-22T02:33:03;63.40;;;52.40;;
22421;SDS011;11378;51.642;7.668;2022-11-22T02:35:30;63.67;;;54.13;;
22421;SDS011;11378;51.642;7.668;2022-11-22T02:37:57;62.03;;;52.75;;
22421;SDS011;11378;51.642;7.668;2022-11-22T02:40:25;61.47;;;52.38;;
22421;SDS011;11378;51.642;7.668;2022-11-22T02:42:54;60.83;;;52.30;;
22421;SDS011;11378;51.642;7.668;2022-11-22T02:45:23;59.60;;;50.45;;
22421;SDS011;11378;51.642;7.668;2022-11-22T02:47:50;58.47;;;50.25;;
22421;SDS011;11378;51.642;7.668;2022-11-22T02:50:16;58.30;;;50.92;;
22421;SDS011;11378;51.642;7.668;2022-11-22T02:52:42;59.03;;;51.22;;
22421;SDS011;11378;51.642;7.668;2022-11-22T02:55:09;58.47;;;50.53;;
22421;SDS011;11378;51.642;7.668;2022-11-22T02:57:35;59.40;;;50.97;;
22421;SDS011;11378;51.642;7.668;2022-11-22T03:00:02;58.95;;;49.97;;
22421;SDS011;11378;51.642;7.668;2022-11-22T03:02:28;57.17;;;50.13;;
22421;SDS011;11378;51.642;7.668;2022-11-22T03:04:54;59.95;;;50.45;;
22421;SDS011;11378;51.642;7.668;2022-11-22T03:07:21;56.67;;;48.63;;
22421;SDS011;11378;51.642;7.668;2022-11-22T03:09:47;56.30;;;48.58;;
22421;SDS011;11378;51.642;7.668;2022-11-22T03:12:14;57.00;;;48.50;;
22421;SDS011;11378;51.642;7.668;2022-11-22T03:14:40;57.47;;;49.38;;
22421;SDS011;11378;51.642;7.668;2022-11-22T03:17:07;56.45;;;49.47;;
22421;SDS011;11378;51.642;7.668;2022-11-22T03:19:33;56.70;;;48.67;;
22421;SDS011;11378;51.642;7.668;2022-11-22T03:21:59;55.85;;;48.30;;
22421;SDS011;11378;51.642;7.668;2022-11-22T03:24:26;57.17;;;48.35;;
22421;SDS011;11378;51.642;7.668;2022-11-22T03:26:52;56.30;;;48.80;;
22421;SDS011;11378;51.642;7.668;2022-11-22T03:29:19;55.25;;;47.67;;
22421;SDS011;11378;51.642;7.668;2022-11-22T03:31:45;54.75;;;46.85;;
22421;SDS011;11378;51.642;7.668;2022-11-22T03:34:12;53.83;;;46.47;;
22421;SDS011;11378;51.642;7.668;2022-11-22T03:36:38;55.20;;;47.25;;
22421;SDS011;11378;51.642;7.668;2022-11-22T03:39:05;53.15;;;46.53;;
22421;SDS011;11378;51.642;7.668;2022-11-22T03:41:31;55.60;;;46.92;;
22421;SDS011;11378;51.642;7.668;2022-11-22T03:43:57;51.58;;;45.30;;
22421;SDS011;11378;51.642;7.668;2022-11-22T03:46:24;55.10;;;47.10;;
22421;SDS011;11378;51.642;7.668;2022-11-22T03:48:50;51.05;;;45.45;;
22421;SDS011;11378;51.642;7.668;2022-11-22T03:51:17;54.30;;;46.05;;
22421;SDS011;11378;51.642;7.668;2022-11-22T03:53:43;52.00;;;44.90;;
22421;SDS011;11378;51.642;7.668;2022-11-22T03:56:10;53.90;;;45.70;;
22421;SDS011;11378;51.642;7.668;2022-11-22T03:58:36;50.67;;;43.75;;
22421;SDS011;11378;51.642;7.668;2022-11-22T04:01:02;51.10;;;44.42;;
22421;SDS011;11378;51.642;7.668;2022-11-22T04:03:29;52.70;;;44.15;;
22421;SDS011;11378;51.642;7.668;2022-11-22T04:05:56;53.03;;;46.67;;
22421;SDS011;11378;51.642;7.668;2022-11-22T04:08:22;51.08;;;43.92;;
22421;SDS011;11378;51.642;7.668;2022-11-22T04:10:49;50.42;;;44.55;;
22421;SDS011;11378;51.642;7.668;2022-11-22T04:13:16;50.67;;;43.58;;
22421;SDS011;11378;51.642;7.668;2022-11-22T04:15:42;50.35;;;43.00;;
22421;SDS011;11378;51.642;7.668;2022-11-22T04:18:09;49.08;;;43.17;;
22421;SDS011;11378;51.642;7.668;2022-11-22T04:20:36;48.97;;;42.92;;
22421;SDS011;11378;51.642;7.668;2022-11-22T04:23:22;46.75;;;41.65;;
22421;SDS011;11378;51.642;7.668;2022-11-22T04:25:49;49.28;;;42.25;;
22421;SDS011;11378;51.642;7.668;2022-11-22T04:28:17;48.65;;;42.42;;
22421;SDS011;11378;51.642;7.668;2022-11-22T04:30:44;50.03;;;41.70;;
22421;SDS011;11378;51.642;7.668;2022-11-22T04:33:29;47.40;;;41.58;;
22421;SDS011;11378;51.642;7.668;2022-11-22T04:35:55;49.25;;;42.72;;
22421;SDS011;11378;51.642;7.668;2022-11-22T04:38:22;49.60;;;42.35;;
22421;SDS011;11378;51.642;7.668;2022-11-22T04:40:48;47.83;;;41.03;;
22421;SDS011;11378;51.642;7.668;2022-11-22T04:43:17;44.92;;;39.20;;
22421;SDS011;11378;51.642;7.668;2022-11-22T04:46:03;47.17;;;41.15;;
22421;SDS011;11378;51.642;7.668;2022-11-22T04:48:29;46.03;;;40.85;;
22421;SDS011;11378;51.642;7.668;2022-11-22T04:50:56;48.35;;;41.30;;
22421;SDS011;11378;51.642;7.668;2022-11-22T04:53:41;46.80;;;40.55;;
22421;SDS011;11378;51.642;7.668;2022-11-22T04:56:08;48.72;;;40.97;;
22421;SDS011;11378;51.642;7.668;2022-11-22T04:58:35;46.15;;;40.40;;
22421;SDS011;11378;51.642;7.668;2022-11-22T05:01:01;45.10;;;38.95;;
22421;SDS011;11378;51.642;7.668;2022-11-22T05:03:28;45.40;;;38.97;;
22421;SDS011;11378;51.642;7.668;2022-11-22T05:05:54;42.90;;;37.65;;
22421;SDS011;11378;51.642;7.668;2022-11-22T05:08:20;43.03;;;37.67;;
22421;SDS011;11378;51.642;7.668;2022-11-22T05:10:47;44.88;;;39.00;;
22421;SDS011;11378;51.642;7.668;2022-11-22T05:13:31;44.58;;;38.13;;
22421;SDS011;11378;51.642;7.668;2022-11-22T05:15:58;45.35;;;38.60;;
22421;SDS011;11378;51.642;7.668;2022-11-22T05:18:25;42.17;;;37.40;;
22421;SDS011;11378;51.642;7.668;2022-11-22T05:20:52;43.67;;;37.78;;
22421;SDS011;11378;51.642;7.668;2022-11-22T05:23:18;43.83;;;38.10;;
22421;SDS011;11378;51.642;7.668;2022-11-22T05:26:04;42.38;;;37.60;;
22421;SDS011;11378;51.642;7.668;2022-11-22T05:28:31;44.45;;;38.95;;
22421;SDS011;11378;51.642;7.668;2022-11-22T05:30:58;43.08;;;37.00;;
22421;SDS011;11378;51.642;7.668;2022-11-22T05:33:24;41.00;;;36.65;;
22421;SDS011;11378;51.642;7.668;2022-11-22T05:35:51;40.95;;;36.50;;
22421;SDS011;11378;51.642;7.668;2022-11-22T05:38:17;41.95;;;37.00;;
22421;SDS011;11378;51.642;7.668;2022-11-22T05:40:43;40.28;;;35.47;;
22421;SDS011;11378;51.642;7.668;2022-11-22T05:43:10;42.15;;;37.22;;
22421;SDS011;11378;51.642;7.668;2022-11-22T05:45:36;41.10;;;35.97;;
22421;SDS011;11378;51.642;7.668;2022-11-22T05:48:03;41.80;;;35.58;;
22421;SDS011;11378;51.642;7.668;2022-11-22T05:50:29;39.03;;;34.65;;
22421;SDS011;11378;51.642;7.668;2022-11-22T05:52:59;41.38;;;35.80;;
22421;SDS011;11378;51.642;7.668;2022-11-22T05:55:26;40.15;;;34.75;;
22421;SDS011;11378;51.642;7.668;2022-11-22T05:57:52;39.72;;;34.47;;
22421;SDS011;11378;51.642;7.668;2022-11-22T06:00:18;40.90;;;35.13;;
22421;SDS011;11378;51.642;7.668;2022-11-22T06:02:45;38.58;;;33.92;;
22421;SDS011;11378;51.642;7.668;2022-11-22T06:05:11;40.78;;;34.80;;
22421;SDS011;11378;51.642;7.668;2022-11-22T06:07:38;38.38;;;33.17;;
22421;SDS011;11378;51.642;7.668;2022-11-22T06:10:04;39.38;;;34.35;;
22421;SDS011;11378;51.642;7.668;2022-11-22T06:12:31;38.65;;;34.22;;
22421;SDS011;11378;51.642;7.668;2022-11-22T06:14:57;38.38;;;33.17;;
22421;SDS011;11378;51.642;7.668;2022-11-22T06:17:23;40.20;;;33.42;;
22421;SDS011;11378;51.642;7.668;2022-11-22T06:19:50;36.22;;;32.33;;
22421;SDS011;11378;51.642;7.668;2022-11-22T06:22:16;37.55;;;33.20;;
22421;SDS011;11378;51.642;7.668;2022-11-22T06:24:43;37.97;;;32.75;;
22421;SDS011;11378;51.642;7.668;2022-11-22T06:27:09;37.00;;;32.80;;
22421;SDS011;11378;51.642;7.668;2022-11-22T06:29:35;36.47;;;31.92;;
22421;SDS011;11378;51.642;7.668;2022-11-22T06:32:02;36.65;;;32.25;;
22421;SDS011;11378;51.642;7.668;2022-11-22T06:34:28;37.15;;;32.25;;
22421;SDS011;11378;51.642;7.668;2022-11-22T06:36:54;35.47;;;31.23;;
22421;SDS011;11378;51.642;7.668;2022-11-22T06:39:21;36.15;;;31.50;;
22421;SDS011;11378;51.642;7.668;2022-11-22T06:41:47;36.80;;;31.73;;
22421;SDS011;11378;51.642;7.668;2022-11-22T06:44:14;35.90;;;31.13;;
22421;SDS011;11378;51.642;7.668;2022-11-22T06:46:40;33.85;;;30.08;;
22421;SDS011;11378;51.642;7.668;2022-11-22T06:49:06;34.83;;;30.73;;
22421;SDS011;11378;51.642;7.668;2022-11-22T06:51:33;33.72;;;30.08;;
22421;SDS011;11378;51.642;7.668;2022-11-22T06:53:59;34.60;;;30.52;;
22421;SDS011;11378;51.642;7.668;2022-11-22T06:56:29;33.78;;;30.13;;
22421;SDS011;11378;51.642;7.668;2022-11-22T06:58:56;35.92;;;31.05;;
22421;SDS011;11378;51.642;7.668;2022-11-22T07:01:26;34.70;;;30.33;;
22421;SDS011;11378;51.642;7.668;2022-11-22T07:03:53;33.20;;;28.92;;
22421;SDS011;11378;51.642;7.668;2022-11-22T07:06:24;33.53;;;29.00;;
22421;SDS011;11378;51.642;7.668;2022-11-22T07:08:50;33.83;;;29.40;;
22421;SDS011;11378;51.642;7.668;2022-11-22T07:11:18;32.83;;;29.25;;
22421;SDS011;11378;51.642;7.668;2022-11-22T07:13:44;34.38;;;29.80;;
22421;SDS011;11378;51.642;7.668;2022-11-22T07:16:12;32.28;;;28.65;;
22421;SDS011;11378;51.642;7.668;2022-11-22T07:18:39;32.88;;;28.27;;
22421;SDS011;11378;51.642;7.668;2022-11-22T07:21:26;33.50;;;28.70;;
22421;SDS011;11378;51.642;7.668;2022-11-22T07:23:54;33.15;;;29.08;;
22421;SDS011;11378;51.642;7.668;2022-11-22T07:26:21;32.38;;;28.45;;
22421;SDS011;11378;51.642;7.668;2022-11-22T07:28:48;30.90;;;27.55;;
22421;SDS011;11378;51.642;7.668;2022-11-22T07:31:15;32.50;;;28.10;;
22421;SDS011;11378;51.642;7.668;2022-11-22T07:33:41;30.40;;;26.90;;
22421;SDS011;11378;51.642;7.668;2022-11-22T07:36:10;31.35;;;27.95;;
22421;SDS011;11378;51.642;7.668;2022-11-22T07:38:36;31.38;;;27.60;;
22421;SDS011;11378;51.642;7.668;2022-11-22T07:41:03;30.52;;;27.20;;
22421;SDS011;11378;51.642;7.668;2022-11-22T07:43:30;29.55;;;26.20;;
22421;SDS011;11378;51.642;7.668;2022-11-22T07:45:57;29.17;;;26.00;;
22421;SDS011;11378;51.642;7.668;2022-11-22T07:48:23;29.80;;;26.60;;
22421;SDS011;11378;51.642;7.668;2022-11-22T07:50:50;29.30;;;26.20;;
22421;SDS011;11378;51.642;7.668;2022-11-22T07:53:16;30.20;;;26.45;;
22421;SDS011;11378;51.642;7.668;2022-11-22T07:55:43;31.08;;;27.67;;
22421;SDS011;11378;51.642;7.668;2022-11-22T07:58:09;31.58;;;27.20;;
22421;SDS011;11378;51.642;7.668;2022-11-22T08:00:36;31.13;;;27.08;;
22421;SDS011;11378;51.642;7.668;2022-11-22T08:03:02;28.05;;;25.02;;
22421;SDS011;11378;51.642;7.668;2022-11-22T08:05:29;28.15;;;25.00;;
22421;SDS011;11378;51.642;7.668;2022-11-22T08:07:55;28.67;;;25.48;;
22421;SDS011;11378;51.642;7.668;2022-11-22T08:10:21;27.95;;;24.52;;
22421;SDS011;11378;51.642;7.668;2022-11-22T08:12:48;27.73;;;24.83;;
22421;SDS011;11378;51.642;7.668;2022-11-22T08:15:15;28.25;;;25.08;;
22421;SDS011;11378;51.642;7.668;2022-11-22T08:17:41;28.58;;;25.02;;
22421;SDS011;11378;51.642;7.668;2022-11-22T08:20:08;29.92;;;25.83;;
22421;SDS011;11378;51.642;7.668;2022-11-22T08:22:35;28.50;;;25.27;;
22421;SDS011;11378;51.642;7.668;2022-11-22T08:25:02;26.77;;;23.70;;
22421;SDS011;11378;51.642;7.668;2022-11-22T08:27:28;26.65;;;23.65;;
22421;SDS011;11378;51.642;7.668;2022-11-22T08:29:55;27.15;;;24.23;;
22421;SDS011;11378;51.642;7.668;2022-11-22T08:32:21;26.75;;;23.95;;
22421;SDS011;11378;51.642;7.668;2022-11-22T08:34:48;26.92;;;23.75;;
22421;SDS011;11378;51.642;7.668;2022-11-22T08:37:14;27.65;;;24.38;;
22421;SDS011;11378;51.642;7.668;2022-11-22T08:39:40;28.27;;;24.15;;
22421;SDS011;11378;51.642;7.668;2022-11-22T08:42:07;26.25;;;23.45;;
22421;SDS011;11378;51.642;7.668;2022-11-22T08:44:33;26.13;;;23.25;;
22421;SDS011;11378;51.642;7.668;2022-11-22T08:46:59;25.95;;;23.15;;
22421;SDS011;11378;51.642;7.668;2022-11-22T08:49:26;26.58;;;23.65;;
22421;SDS011;11378;51.642;7.668;2022-11-22T08:51:52;26.55;;;23.48;;
22421;SDS011;11378;51.642;7.668;2022-11-22T08:54:19;25.27;;;22.58;;
22421;SDS011;11378;51.642;7.668;2022-11-22T08:56:45;25.40;;;22.67;;
22421;SDS011;11378;51.642;7.668;2022-11-22T08:59:11;24.95;;;22.25;;
22421;SDS011;11378;51.642;7.668;2022-11-22T09:01:38;25.38;;;22.35;;
22421;SDS011;11378;51.642;7.668;2022-11-22T09:04:04;25.73;;;22.92;;
22421;SDS011;11378;51.642;7.668;2022-11-22T09:06:31;25.58;;;21.63;;
22421;SDS011;11378;51.642;7.668;2022-11-22T09:08:57;25.85;;;23.05;;
22421;SDS011;11378;51.642;7.668;2022-11-22T09:11:23;25.02;;;21.40;;
22421;SDS011;11378;51.642;7.668;2022-11-22T09:13:50;23.67;;;20.48;;
22421;SDS011;11378;51.642;7.668;2022-11-22T09:16:17;23.73;;;21.15;;
22421;SDS011;11378;51.642;7.668;2022-11-22T09:18:45;23.75;;;21.17;;
22421;SDS011;11378;51.642;7.668;2022-11-22T09:21:12;24.20;;;21.00;;
22421;SDS011;11378;51.642;7.668;2022-11-22T09:23:43;23.60;;;21.10;;
22421;SDS011;11378;51.642;7.668;2022-11-22T09:26:11;23.85;;;21.00;;
22421;SDS011;11378;51.642;7.668;2022-11-22T09:28:37;22.77;;;20.35;;
22421;SDS011;11378;51.642;7.668;2022-11-22T09:31:08;23.83;;;20.17;;
22421;SDS011;11378;51.642;7.668;2022-11-22T09:33:35;22.70;;;20.30;;
22421;SDS011;11378;51.642;7.668;2022-11-22T09:36:06;22.73;;;19.60;;
22421;SDS011;11378;51.642;7.668;2022-11-22T09:38:33;23.77;;;19.98;;
22421;SDS011;11378;51.642;7.668;2022-11-22T09:41:00;23.38;;;20.88;;
22421;SDS011;11378;51.642;7.668;2022-11-22T09:51:08;21.90;;;18.88;;
22421;SDS011;11378;51.642;7.668;2022-11-22T09:53:42;23.70;;;20.63;;
22421;SDS011;11378;51.642;7.668;2022-11-22T09:56:19;21.83;;;19.52;;
22421;SDS011;11378;51.642;7.668;2022-11-22T09:58:48;20.77;;;17.95;;
22421;SDS011;11378;51.642;7.668;2022-11-22T10:04:43;22.40;;;19.33;;
22421;SDS011;11378;51.642;7.668;2022-11-22T10:06:39;20.40;;;18.13;;
22421;SDS011;11378;51.642;7.668;2022-11-22T10:19:33;20.98;;;18.23;;
22421;SDS011;11378;51.642;7.668;2022-11-22T10:22:00;19.50;;;17.48;;
22421;SDS011;11378;51.642;7.668;2022-11-22T10:24:27;20.05;;;17.92;;
22421;SDS011;11378;51.642;7.668;2022-11-22T10:26:53;18.75;;;16.80;;
22421;SDS011;11378;51.642;7.668;2022-11-22T10:34:39;19.20;;;17.17;;
22421;SDS011;11378;51.642;7.668;2022-11-22T10:40:03;18.15;;;16.25;;
22421;SDS011;11378;51.642;7.668;2022-11-22T10:42:36;18.98;;;16.98;;
22421;SDS011;11378;51.642;7.668;2022-11-22T10:45:11;17.77;;;15.88;;
22421;SDS011;11378;51.642;7.668;2022-11-22T10:50:15;18.30;;;16.30;;
22421;SDS011;11378;51.642;7.668;2022-11-22T10:52:54;16.65;;;14.95;;
22421;SDS011;11378;51.642;7.668;2022-11-22T10:55:27;16.67;;;14.68;;
22421;SDS011;11378;51.642;7.668;2022-11-22T11:00:46;17.38;;;15.35;;
22421;SDS011;11378;51.642;7.668;2022-11-22T11:03:17;16.17;;;14.43;;
22421;SDS011;11378;51.642;7.668;2022-11-22T11:11:04;16.63;;;14.93;;
22421;SDS011;11378;51.642;7.668;2022-11-22T11:13:32;16.90;;;15.20;;
22421;SDS011;11378;51.642;7.668;2022-11-22T11:16:00;16.48;;;14.70;;
22421;SDS011;11378;51.642;7.668;2022-11-22T11:21:22;16.40;;;14.40;;
22421;SDS011;11378;51.642;7.668;2022-11-22T11:23:50;16.38;;;14.57;;
22421;SDS011;11378;51.642;7.668;2022-11-22T11:26:26;15.93;;;14.23;;
22421;SDS011;11378;51.642;7.668;2022-11-22T11:31:42;15.02;;;13.52;;
22421;SDS011;11378;51.642;7.668;2022-11-22T11:36:41;14.98;;;12.77;;
22421;SDS011;11378;51.642;7.668;2022-11-22T11:39:18;17.88;;;13.70;;
22421;SDS011;11378;51.642;7.668;2022-11-22T11:41:45;14.18;;;12.43;;
22421;SDS011;11378;51.642;7.668;2022-11-22T11:44:31;14.75;;;13.23;;
22421;SDS011;11378;51.642;7.668;2022-11-22T11:46:59;14.98;;;12.18;;
22421;SDS011;11378;51.642;7.668;2022-11-22T11:49:26;15.50;;;11.55;;
22421;SDS011;11378;51.642;7.668;2022-11-22T11:51:53;14.82;;;10.63;;
22421;SDS011;11378;51.642;7.668;2022-11-22T11:54:21;13.75;;;10.60;;
22421;SDS011;11378;51.642;7.668;2022-11-22T11:59:19;13.30;;;10.30;;
22421;SDS011;11378;51.642;7.668;2022-11-22T12:01:53;12.38;;;10.10;;
22421;SDS011;11378;51.642;7.668;2022-11-22T12:04:21;11.82;;;10.02;;
22421;SDS011;11378;51.642;7.668;2022-11-22T12:06:54;13.93;;;9.43;;
22421;SDS011;11378;51.642;7.668;2022-11-22T12:09:28;11.98;;;9.95;;
22421;SDS011;11378;51.642;7.668;2022-11-22T12:11:54;11.07;;;9.80;;
22421;SDS011;11378;51.642;7.668;2022-11-22T12:14:24;13.75;;;9.48;;
22421;SDS011;11378;51.642;7.668;2022-11-22T12:16:52;10.35;;;9.23;;
22421;SDS011;11378;51.642;7.668;2022-11-22T12:20:03;11.07;;;9.00;;
22421;SDS011;11378;51.642;7.668;2022-11-22T12:24:46;11.43;;;9.37;;
22421;SDS011;11378;51.642;7.668;2022-11-22T12:27:13;11.63;;;9.20;;
22421;SDS011;11378;51.642;7.668;2022-11-22T12:29:39;10.82;;;8.73;;
22421;SDS011;11378;51.642;7.668;2022-11-22T12:32:10;10.07;;;8.65;;
22421;SDS011;11378;51.642;7.668;2022-11-22T12:34:47;13.02;;;8.98;;
22421;SDS011;11378;51.642;7.668;2022-11-22T12:39:45;10.20;;;8.50;;
22421;SDS011;11378;51.642;7.668;2022-11-22T12:42:13;10.88;;;9.02;;
22421;SDS011;11378;51.642;7.668;2022-11-22T12:44:44;9.85;;;8.48;;
22421;SDS011;11378;51.642;7.668;2022-11-22T12:47:12;11.20;;;9.02;;
22421;SDS011;11378;51.642;7.668;2022-11-22T12:49:42;12.43;;;8.00;;
22421;SDS011;11378;51.642;7.668;2022-11-22T12:54:40;10.43;;;8.55;;
22421;SDS011;11378;51.642;7.668;2022-11-22T12:57:18;9.43;;;7.93;;
22421;SDS011;11378;51.642;7.668;2022-11-22T12:59:55;10.85;;;8.45;;
22421;SDS011;11378;51.642;7.668;2022-11-22T13:07:48;10.20;;;8.25;;
22421;SDS011;11378;51.642;7.668;2022-11-22T13:13:16;9.52;;;7.65;;
22421;SDS011;11378;51.642;7.668;2022-11-22T13:15:45;8.77;;;7.88;;
22421;SDS011;11378;51.642;7.668;2022-11-22T13:18:13;8.98;;;7.35;;
22421;SDS011;11378;51.642;7.668;2022-11-22T13:20:43;6.45;;;5.80;;
22421;SDS011;11378;51.642;7.668;2022-11-22T13:23:40;8.35;;;7.47;;
22421;SDS011;11378;51.642;7.668;2022-11-22T13:26:07;10.07;;;7.90;;
22421;SDS011;11378;51.642;7.668;2022-11-22T13:28:36;9.27;;;7.82;;
22421;SDS011;11378;51.642;7.668;2022-11-22T13:33:33;8.13;;;7.33;;
22421;SDS011;11378;51.642;7.668;2022-11-22T13:38:45;7.75;;;6.95;;
22421;SDS011;11378;51.642;7.668;2022-11-22T13:41:59;9.43;;;7.20;;
22421;SDS011;11378;51.642;7.668;2022-11-22T13:49:52;7.97;;;6.93;;
22421;SDS011;11378;51.642;7.668;2022-11-22T13:55:20;5.80;;;5.03;;
22421;SDS011;11378;51.642;7.668;2022-11-22T14:05:20;7.38;;;6.65;;
22421;SDS011;11378;51.642;7.668;2022-11-22T14:07:51;8.07;;;6.68;;
22421;SDS011;11378;51.642;7.668;2022-11-22T14:10:29;7.90;;;6.25;;
22421;SDS011;11378;51.642;7.668;2022-11-22T14:19:05;6.88;;;6.18;;
22421;SDS011;11378;51.642;7.668;2022-11-22T14:31:38;7.72;;;6.30;;
22421;SDS011;11378;51.642;7.668;2022-11-22T14:34:18;7.15;;;6.10;;
22421;SDS011;11378;51.642;7.668;2022-11-22T14:37:32;6.40;;;5.60;;
22421;SDS011;11378;51.642;7.668;2022-11-22T14:45:18;7.30;;;5.90;;
22421;SDS011;11378;51.642;7.668;2022-11-22T14:50:23;6.78;;;5.80;;
22421;SDS011;11378;51.642;7.668;2022-11-22T14:52:50;6.28;;;5.20;;
22421;SDS011;11378;51.642;7.668;2022-11-22T14:55:18;6.03;;;5.43;;
22421;SDS011;11378;51.642;7.668;2022-11-22T14:57:46;7.07;;;5.50;;
22421;SDS011;11378;51.642;7.668;2022-11-22T15:00:17;6.13;;;5.30;;
22421;SDS011;11378;51.642;7.668;2022-11-22T15:10:34;6.00;;;5.40;;
22421;SDS011;11378;51.642;7.668;2022-11-22T15:13:20;5.55;;;5.05;;
22421;SDS011;11378;51.642;7.668;2022-11-22T15:15:50;5.03;;;4.40;;
22421;SDS011;11378;51.642;7.668;2022-11-22T15:20:46;5.27;;;3.93;;
22421;SDS011;11378;51.642;7.668;2022-11-22T15:23:14;6.00;;;5.22;;
22421;SDS011;11378;51.642;7.668;2022-11-22T15:25:42;6.30;;;5.22;;
22421;SDS011;11378;51.642;7.668;2022-11-22T15:28:15;5.85;;;5.22;;
22421;SDS011;11378;51.642;7.668;2022-11-22T15:30:42;5.97;;;5.38;;
22421;SDS011;11378;51.642;7.668;2022-11-22T15:33:24;5.47;;;4.97;;
22421;SDS011;11378;51.642;7.668;2022-11-22T15:35:56;5.43;;;4.93;;
22421;SDS011;11378;51.642;7.668;2022-11-22T15:38:24;5.43;;;4.60;;
22421;SDS011;11378;51.642;7.668;2022-11-22T15:40:51;4.97;;;4.47;;
22421;SDS011;11378;51.642;7.668;2022-11-22T15:43:23;5.78;;;5.07;;
22421;SDS011;11378;51.642;7.668;2022-11-22T15:45:49;6.25;;;5.18;;
22421;SDS011;11378;51.642;7.668;2022-11-22T15:53:58;5.80;;;4.57;;
22421;SDS011;11378;51.642;7.668;2022-11-22T15:59:15;5.40;;;4.70;;
22421;SDS011;11378;51.642;7.668;2022-11-22T16:01:42;8.00;;;4.32;;
22421;SDS011;11378;51.642;7.668;2022-11-22T16:04:26;7.95;;;4.00;;
22421;SDS011;11378;51.642;7.668;2022-11-22T16:06:53;4.63;;;4.10;;
22421;SDS011;11378;51.642;7.668;2022-11-22T16:09:25;5.85;;;4.05;;
22421;SDS011;11378;51.642;7.668;2022-11-22T16:11:52;5.65;;;4.68;;
22421;SDS011;11378;51.642;7.668;2022-11-22T16:14:41;5.32;;;4.22;;
22421;SDS011;11378;51.642;7.668;2022-11-22T16:17:25;5.60;;;4.60;;
22421;SDS011;11378;51.642;7.668;2022-11-22T16:19:52;6.45;;;4.30;;
22421;SDS011;11378;51.642;7.668;2022-11-22T16:22:28;4.95;;;4.43;;
22421;SDS011;11378;51.642;7.668;2022-11-22T16:27:44;4.70;;;4.20;;
22421;SDS011;11378;51.642;7.668;2022-11-22T16:30:11;4.88;;;3.88;;
22421;SDS011;11378;51.642;7.668;2022-11-22T16:32:38;5.22;;;4.57;;
22421;SDS011;11378;51.642;7.668;2022-11-22T16:35:10;4.45;;;3.83;;
22421;SDS011;11378;51.642;7.668;2022-11-22T16:37:40;4.82;;;4.32;;
22421;SDS011;11378;51.642;7.668;2022-11-22T16:40:07;4.82;;;4.03;;
22421;SDS011;11378;51.642;7.668;2022-11-22T16:42:35;4.75;;;3.95;;
22421;SDS011;11378;51.642;7.668;2022-11-22T16:45:12;4.57;;;4.13;;
22421;SDS011;11378;51.642;7.668;2022-11-22T16:47:39;4.63;;;3.78;;
22421;SDS011;11378;51.642;7.668;2022-11-22T16:50:09;4.65;;;4.10;;
22421;SDS011;11378;51.642;7.668;2022-11-22T16:52:35;5.30;;;4.18;;